sensor_id;sensor_type;location;lat;lon;timestamp;P1;durP1;ratioP1;P2;durP2;ratioP2
25721;SDS011;13578;53.450;15.496;2023-05-14T00:02:43;3.58;;;1.90;;
25721;SDS011;13578;53.450;15.496;2023-05-14T00:05:43;3.92;;;2.13;;
25721;SDS011;13578;53.450;15.496;2023-05-14T00:08:44;5.35;;;2.33;;
25721;SDS011;13578;53.450;15.496;2023-05-14T00:11:45;5.78;;;2.38;;
25721;SDS011;13578;53.450;15.496;2023-05-14T00:14:45;4.78;;;2.17;;
25721;SDS011;13578;53.450;15.496;2023-05-14T00:17:46;10.25;;;2.13;;
25721;SDS011;13578;53.450;15.496;2023-05-14T00:20:47;4.75;;;1.98;;
25721;SDS011;13578;53.450;15.496;2023-05-14T00:23:48;5.65;;;2.35;;
25721;SDS011;13578;53.450;15.496;2023-05-14T00:26:49;4.80;;;2.25;;
25721;SDS011;13578;53.450;15.496;2023-05-14T00:29:49;3.88;;;1.95;;
25721;SDS011;13578;53.450;15.496;2023-05-14T00:32:50;5.38;;;2.40;;
25721;SDS011;13578;53.450;15.496;2023-05-14T00:35:51;3.55;;;2.20;;
25721;SDS011;13578;53.450;15.496;2023-05-14T00:38:51;6.40;;;2.22;;
25721;SDS011;13578;53.450;15.496;2023-05-14T00:41:52;3.25;;;2.15;;
25721;SDS011;13578;53.450;15.496;2023-05-14T00:44:53;6.80;;;2.60;;
25721;SDS011;13578;53.450;15.496;2023-05-14T00:47:53;5.25;;;2.60;;
25721;SDS011;13578;53.450;15.496;2023-05-14T00:50:54;4.03;;;1.92;;
25721;SDS011;13578;53.450;15.496;2023-05-14T00:53:55;4.38;;;1.98;;
25721;SDS011;13578;53.450;15.496;2023-05-14T00:56:56;8.77;;;2.45;;
25721;SDS011;13578;53.450;15.496;2023-05-14T00:59:57;4.55;;;2.50;;
25721;SDS011;13578;53.450;15.496;2023-05-14T01:02:58;7.20;;;2.63;;
25721;SDS011;13578;53.450;15.496;2023-05-14T01:06:14;4.13;;;2.10;;
25721;SDS011;13578;53.450;15.496;2023-05-14T01:15:40;11.68;;;2.92;;
25721;SDS011;13578;53.450;15.496;2023-05-14T01:18:43;3.45;;;2.38;;
25721;SDS011;13578;53.450;15.496;2023-05-14T01:21:47;5.40;;;2.25;;
25721;SDS011;13578;53.450;15.496;2023-05-14T01:24:48;6.60;;;2.58;;
25721;SDS011;13578;53.450;15.496;2023-05-14T01:31:15;4.75;;;2.38;;
25721;SDS011;13578;53.450;15.496;2023-05-14T01:34:24;4.15;;;2.22;;
25721;SDS011;13578;53.450;15.496;2023-05-14T01:37:27;3.85;;;2.50;;
25721;SDS011;13578;53.450;15.496;2023-05-14T01:40:30;4.30;;;2.17;;
25721;SDS011;13578;53.450;15.496;2023-05-14T01:43:32;3.30;;;2.45;;
25721;SDS011;13578;53.450;15.496;2023-05-14T01:46:34;7.25;;;2.95;;
25721;SDS011;13578;53.450;15.496;2023-05-14T01:49:34;4.07;;;2.50;;
25721;SDS011;13578;53.450;15.496;2023-05-14T01:52:36;6.22;;;2.50;;
25721;SDS011;13578;53.450;15.496;2023-05-14T01:55:37;6.22;;;2.50;;
25721;SDS011;13578;53.450;15.496;2023-05-14T01:58:37;3.70;;;2.10;;
25721;SDS011;13578;53.450;15.496;2023-05-14T02:01:38;5.05;;;2.58;;
25721;SDS011;13578;53.450;15.496;2023-05-14T02:04:39;4.88;;;2.45;;
25721;SDS011;13578;53.450;15.496;2023-05-14T02:07:39;7.47;;;2.50;;
25721;SDS011;13578;53.450;15.496;2023-05-14T02:10:40;21.23;;;2.95;;
25721;SDS011;13578;53.450;15.496;2023-05-14T02:13:41;5.97;;;2.25;;
25721;SDS011;13578;53.450;15.496;2023-05-14T02:16:41;5.88;;;2.70;;
25721;SDS011;13578;53.450;15.496;2023-05-14T02:19:42;8.80;;;3.33;;
25721;SDS011;13578;53.450;15.496;2023-05-14T02:22:43;10.50;;;3.08;;
25721;SDS011;13578;53.450;15.496;2023-05-14T02:25:47;6.07;;;2.63;;
25721;SDS011;13578;53.450;15.496;2023-05-14T02:28:48;8.10;;;3.15;;
25721;SDS011;13578;53.450;15.496;2023-05-14T02:31:48;5.90;;;3.55;;
25721;SDS011;13578;53.450;15.496;2023-05-14T02:34:49;4.43;;;2.60;;
25721;SDS011;13578;53.450;15.496;2023-05-14T02:37:49;6.40;;;2.65;;
25721;SDS011;13578;53.450;15.496;2023-05-14T02:40:50;4.15;;;2.63;;
25721;SDS011;13578;53.450;15.496;2023-05-14T02:43:51;4.88;;;2.42;;
25721;SDS011;13578;53.450;15.496;2023-05-14T02:46:52;3.95;;;2.50;;
25721;SDS011;13578;53.450;15.496;2023-05-14T02:49:53;5.82;;;3.10;;
25721;SDS011;13578;53.450;15.496;2023-05-14T02:52:53;4.80;;;2.90;;
25721;SDS011;13578;53.450;15.496;2023-05-14T02:55:54;4.55;;;2.80;;
25721;SDS011;13578;53.450;15.496;2023-05-14T02:58:55;3.55;;;2.40;;
25721;SDS011;13578;53.450;15.496;2023-05-14T03:01:56;5.13;;;2.55;;
25721;SDS011;13578;53.450;15.496;2023-05-14T03:04:57;5.22;;;2.63;;
25721;SDS011;13578;53.450;15.496;2023-05-14T03:07:57;4.35;;;2.40;;
25721;SDS011;13578;53.450;15.496;2023-05-14T03:10:58;6.28;;;3.35;;
25721;SDS011;13578;53.450;15.496;2023-05-14T03:13:59;3.80;;;2.58;;
25721;SDS011;13578;53.450;15.496;2023-05-14T03:17:00;6.47;;;3.00;;
25721;SDS011;13578;53.450;15.496;2023-05-14T03:20:01;4.60;;;2.50;;
25721;SDS011;13578;53.450;15.496;2023-05-14T03:23:02;4.90;;;3.10;;
25721;SDS011;13578;53.450;15.496;2023-05-14T03:26:05;7.78;;;3.00;;
25721;SDS011;13578;53.450;15.496;2023-05-14T03:29:07;6.90;;;3.13;;
25721;SDS011;13578;53.450;15.496;2023-05-14T03:32:09;4.45;;;2.65;;
25721;SDS011;13578;53.450;15.496;2023-05-14T03:35:10;8.15;;;2.80;;
25721;SDS011;13578;53.450;15.496;2023-05-14T03:38:11;5.40;;;2.40;;
25721;SDS011;13578;53.450;15.496;2023-05-14T03:41:11;4.85;;;2.60;;
25721;SDS011;13578;53.450;15.496;2023-05-14T03:44:12;6.10;;;2.63;;
25721;SDS011;13578;53.450;15.496;2023-05-14T03:47:13;5.40;;;2.47;;
25721;SDS011;13578;53.450;15.496;2023-05-14T03:50:14;11.73;;;3.00;;
25721;SDS011;13578;53.450;15.496;2023-05-14T03:53:15;7.00;;;2.58;;
25721;SDS011;13578;53.450;15.496;2023-05-14T03:56:15;7.35;;;2.75;;
25721;SDS011;13578;53.450;15.496;2023-05-14T03:59:16;4.45;;;2.45;;
25721;SDS011;13578;53.450;15.496;2023-05-14T04:02:17;8.13;;;3.22;;
25721;SDS011;13578;53.450;15.496;2023-05-14T04:05:18;7.72;;;2.75;;
25721;SDS011;13578;53.450;15.496;2023-05-14T04:08:18;5.43;;;2.53;;
25721;SDS011;13578;53.450;15.496;2023-05-14T04:11:19;3.42;;;2.33;;
25721;SDS011;13578;53.450;15.496;2023-05-14T04:14:20;4.03;;;2.47;;
25721;SDS011;13578;53.450;15.496;2023-05-14T04:17:21;7.53;;;2.72;;
25721;SDS011;13578;53.450;15.496;2023-05-14T04:20:22;4.30;;;2.65;;
25721;SDS011;13578;53.450;15.496;2023-05-14T04:23:22;6.20;;;2.22;;
25721;SDS011;13578;53.450;15.496;2023-05-14T04:26:23;5.43;;;2.45;;
25721;SDS011;13578;53.450;15.496;2023-05-14T04:29:24;7.43;;;2.90;;
25721;SDS011;13578;53.450;15.496;2023-05-14T04:32:24;4.63;;;2.75;;
25721;SDS011;13578;53.450;15.496;2023-05-14T04:35:25;6.82;;;2.50;;
25721;SDS011;13578;53.450;15.496;2023-05-14T04:38:26;4.75;;;2.65;;
25721;SDS011;13578;53.450;15.496;2023-05-14T04:41:27;8.43;;;2.70;;
25721;SDS011;13578;53.450;15.496;2023-05-14T04:44:28;4.88;;;2.80;;
25721;SDS011;13578;53.450;15.496;2023-05-14T04:47:28;4.60;;;2.38;;
25721;SDS011;13578;53.450;15.496;2023-05-14T04:50:29;5.00;;;2.65;;
25721;SDS011;13578;53.450;15.496;2023-05-14T04:53:30;4.90;;;2.78;;
25721;SDS011;13578;53.450;15.496;2023-05-14T04:56:31;6.32;;;2.58;;
25721;SDS011;13578;53.450;15.496;2023-05-14T04:59:31;5.07;;;2.70;;
25721;SDS011;13578;53.450;15.496;2023-05-14T05:02:32;6.00;;;2.75;;
25721;SDS011;13578;53.450;15.496;2023-05-14T05:05:33;6.15;;;2.80;;
25721;SDS011;13578;53.450;15.496;2023-05-14T05:08:35;5.32;;;2.55;;
25721;SDS011;13578;53.450;15.496;2023-05-14T05:11:36;7.35;;;3.13;;
25721;SDS011;13578;53.450;15.496;2023-05-14T05:14:37;7.95;;;3.17;;
25721;SDS011;13578;53.450;15.496;2023-05-14T05:17:38;3.78;;;2.60;;
25721;SDS011;13578;53.450;15.496;2023-05-14T05:20:39;5.35;;;2.55;;
25721;SDS011;13578;53.450;15.496;2023-05-14T05:23:39;13.85;;;3.33;;
25721;SDS011;13578;53.450;15.496;2023-05-14T05:26:40;5.38;;;2.97;;
25721;SDS011;13578;53.450;15.496;2023-05-14T05:29:42;4.63;;;2.28;;
25721;SDS011;13578;53.450;15.496;2023-05-14T05:32:43;5.93;;;2.50;;
25721;SDS011;13578;53.450;15.496;2023-05-14T05:35:44;5.18;;;2.40;;
25721;SDS011;13578;53.450;15.496;2023-05-14T05:38:44;3.65;;;2.50;;
25721;SDS011;13578;53.450;15.496;2023-05-14T05:41:45;3.35;;;2.25;;
25721;SDS011;13578;53.450;15.496;2023-05-14T05:44:46;5.00;;;2.55;;
25721;SDS011;13578;53.450;15.496;2023-05-14T05:47:46;4.50;;;2.35;;
25721;SDS011;13578;53.450;15.496;2023-05-14T05:50:47;3.72;;;1.98;;
25721;SDS011;13578;53.450;15.496;2023-05-14T05:53:48;3.28;;;2.00;;
25721;SDS011;13578;53.450;15.496;2023-05-14T05:56:48;3.47;;;2.15;;
25721;SDS011;13578;53.450;15.496;2023-05-14T05:59:49;4.40;;;2.55;;
25721;SDS011;13578;53.450;15.496;2023-05-14T06:02:50;6.38;;;2.10;;
25721;SDS011;13578;53.450;15.496;2023-05-14T06:05:50;4.28;;;2.10;;
25721;SDS011;13578;53.450;15.496;2023-05-14T06:08:54;4.78;;;2.75;;
25721;SDS011;13578;53.450;15.496;2023-05-14T06:11:55;4.22;;;2.38;;
25721;SDS011;13578;53.450;15.496;2023-05-14T06:14:55;5.95;;;2.08;;
25721;SDS011;13578;53.450;15.496;2023-05-14T06:17:56;5.90;;;2.70;;
25721;SDS011;13578;53.450;15.496;2023-05-14T06:20:57;9.75;;;2.80;;
25721;SDS011;13578;53.450;15.496;2023-05-14T06:23:59;2.88;;;1.75;;
25721;SDS011;13578;53.450;15.496;2023-05-14T06:26:59;3.85;;;1.60;;
25721;SDS011;13578;53.450;15.496;2023-05-14T06:30:00;3.65;;;1.80;;
25721;SDS011;13578;53.450;15.496;2023-05-14T06:33:01;3.70;;;2.10;;
25721;SDS011;13578;53.450;15.496;2023-05-14T06:36:04;4.93;;;1.90;;
25721;SDS011;13578;53.450;15.496;2023-05-14T06:39:06;4.35;;;1.80;;
25721;SDS011;13578;53.450;15.496;2023-05-14T06:42:07;3.90;;;2.00;;
25721;SDS011;13578;53.450;15.496;2023-05-14T06:45:08;5.15;;;2.30;;
25721;SDS011;13578;53.450;15.496;2023-05-14T06:48:08;4.22;;;2.15;;
25721;SDS011;13578;53.450;15.496;2023-05-14T06:51:09;9.23;;;1.85;;
25721;SDS011;13578;53.450;15.496;2023-05-14T06:54:10;4.18;;;1.95;;
25721;SDS011;13578;53.450;15.496;2023-05-14T06:57:11;7.28;;;2.00;;
25721;SDS011;13578;53.450;15.496;2023-05-14T07:00:11;2.90;;;1.65;;
25721;SDS011;13578;53.450;15.496;2023-05-14T07:03:13;5.93;;;1.98;;
25721;SDS011;13578;53.450;15.496;2023-05-14T07:06:14;9.30;;;1.50;;
25721;SDS011;13578;53.450;15.496;2023-05-14T07:09:14;4.40;;;1.80;;
25721;SDS011;13578;53.450;15.496;2023-05-14T07:12:15;3.50;;;1.45;;
25721;SDS011;13578;53.450;15.496;2023-05-14T07:15:16;4.70;;;1.50;;
25721;SDS011;13578;53.450;15.496;2023-05-14T07:18:16;3.47;;;1.52;;
25721;SDS011;13578;53.450;15.496;2023-05-14T07:21:17;6.65;;;1.52;;
25721;SDS011;13578;53.450;15.496;2023-05-14T07:24:18;10.93;;;1.58;;
25721;SDS011;13578;53.450;15.496;2023-05-14T07:27:18;3.38;;;1.30;;
25721;SDS011;13578;53.450;15.496;2023-05-14T07:30:19;6.60;;;2.08;;
25721;SDS011;13578;53.450;15.496;2023-05-14T07:33:20;7.03;;;1.33;;
25721;SDS011;13578;53.450;15.496;2023-05-14T07:36:21;3.75;;;1.55;;
25721;SDS011;13578;53.450;15.496;2023-05-14T07:39:21;5.10;;;1.70;;
25721;SDS011;13578;53.450;15.496;2023-05-14T07:42:22;11.73;;;1.65;;
25721;SDS011;13578;53.450;15.496;2023-05-14T07:45:23;6.90;;;1.38;;
25721;SDS011;13578;53.450;15.496;2023-05-14T07:48:23;2.13;;;1.05;;
25721;SDS011;13578;53.450;15.496;2023-05-14T07:51:24;7.25;;;1.45;;
25721;SDS011;13578;53.450;15.496;2023-05-14T07:54:27;3.22;;;0.90;;
25721;SDS011;13578;53.450;15.496;2023-05-14T07:57:28;2.60;;;1.35;;
25721;SDS011;13578;53.450;15.496;2023-05-14T08:00:28;3.08;;;1.30;;
25721;SDS011;13578;53.450;15.496;2023-05-14T08:03:29;2.65;;;0.98;;
25721;SDS011;13578;53.450;15.496;2023-05-14T08:06:30;3.65;;;1.27;;
25721;SDS011;13578;53.450;15.496;2023-05-14T08:09:30;3.08;;;1.13;;
25721;SDS011;13578;53.450;15.496;2023-05-14T08:12:31;2.75;;;0.70;;
25721;SDS011;13578;53.450;15.496;2023-05-14T08:15:31;4.88;;;1.17;;
25721;SDS011;13578;53.450;15.496;2023-05-14T08:18:32;2.10;;;0.80;;
25721;SDS011;13578;53.450;15.496;2023-05-14T08:21:32;4.03;;;0.77;;
25721;SDS011;13578;53.450;15.496;2023-05-14T08:24:33;2.75;;;1.20;;
25721;SDS011;13578;53.450;15.496;2023-05-14T08:27:34;4.40;;;1.08;;
25721;SDS011;13578;53.450;15.496;2023-05-14T08:30:34;8.98;;;1.40;;
25721;SDS011;13578;53.450;15.496;2023-05-14T08:33:35;3.95;;;1.60;;
25721;SDS011;13578;53.450;15.496;2023-05-14T08:36:36;2.72;;;1.15;;
25721;SDS011;13578;53.450;15.496;2023-05-14T08:39:37;2.38;;;1.10;;
25721;SDS011;13578;53.450;15.496;2023-05-14T08:42:38;4.65;;;1.25;;
25721;SDS011;13578;53.450;15.496;2023-05-14T08:45:40;2.15;;;0.90;;
25721;SDS011;13578;53.450;15.496;2023-05-14T08:48:41;4.13;;;0.80;;
25721;SDS011;13578;53.450;15.496;2023-05-14T08:51:46;2.27;;;1.20;;
25721;SDS011;13578;53.450;15.496;2023-05-14T08:54:47;3.58;;;1.15;;
25721;SDS011;13578;53.450;15.496;2023-05-14T08:57:52;12.10;;;1.38;;
25721;SDS011;13578;53.450;15.496;2023-05-14T09:00:53;3.13;;;1.38;;
25721;SDS011;13578;53.450;15.496;2023-05-14T09:03:55;2.40;;;1.00;;
25721;SDS011;13578;53.450;15.496;2023-05-14T09:06:58;2.38;;;0.88;;
25721;SDS011;13578;53.450;15.496;2023-05-14T09:10:01;2.25;;;1.13;;
25721;SDS011;13578;53.450;15.496;2023-05-14T09:13:02;2.78;;;1.05;;
25721;SDS011;13578;53.450;15.496;2023-05-14T09:16:04;5.50;;;0.85;;
25721;SDS011;13578;53.450;15.496;2023-05-14T09:19:05;4.00;;;1.20;;
25721;SDS011;13578;53.450;15.496;2023-05-14T09:22:13;3.67;;;1.15;;
25721;SDS011;13578;53.450;15.496;2023-05-14T09:25:15;2.40;;;0.90;;
25721;SDS011;13578;53.450;15.496;2023-05-14T09:28:16;2.70;;;1.30;;
25721;SDS011;13578;53.450;15.496;2023-05-14T09:31:17;9.13;;;1.08;;
25721;SDS011;13578;53.450;15.496;2023-05-14T09:34:24;4.40;;;1.05;;
25721;SDS011;13578;53.450;15.496;2023-05-14T09:37:29;2.10;;;0.93;;
25721;SDS011;13578;53.450;15.496;2023-05-14T09:43:37;2.42;;;0.88;;
25721;SDS011;13578;53.450;15.496;2023-05-14T09:46:37;3.10;;;0.77;;
25721;SDS011;13578;53.450;15.496;2023-05-14T09:49:38;5.25;;;0.98;;
25721;SDS011;13578;53.450;15.496;2023-05-14T09:52:39;3.55;;;0.93;;
25721;SDS011;13578;53.450;15.496;2023-05-14T09:55:40;2.08;;;0.80;;
25721;SDS011;13578;53.450;15.496;2023-05-14T09:58:40;1.55;;;0.80;;
25721;SDS011;13578;53.450;15.496;2023-05-14T10:01:41;2.08;;;0.90;;
25721;SDS011;13578;53.450;15.496;2023-05-14T10:04:43;2.70;;;0.75;;
25721;SDS011;13578;53.450;15.496;2023-05-14T10:07:47;2.22;;;0.77;;
25721;SDS011;13578;53.450;15.496;2023-05-14T10:10:49;3.38;;;0.90;;
25721;SDS011;13578;53.450;15.496;2023-05-14T10:13:55;1.63;;;0.77;;
25721;SDS011;13578;53.450;15.496;2023-05-14T10:17:03;14.55;;;1.23;;
25721;SDS011;13578;53.450;15.496;2023-05-14T10:20:07;2.67;;;0.70;;
25721;SDS011;13578;53.450;15.496;2023-05-14T10:23:13;2.75;;;0.80;;
25721;SDS011;13578;53.450;15.496;2023-05-14T10:26:14;4.25;;;0.77;;
25721;SDS011;13578;53.450;15.496;2023-05-14T10:29:15;2.00;;;0.68;;
25721;SDS011;13578;53.450;15.496;2023-05-14T10:32:16;2.88;;;0.50;;
25721;SDS011;13578;53.450;15.496;2023-05-14T10:35:20;1.83;;;0.70;;
25721;SDS011;13578;53.450;15.496;2023-05-14T10:38:34;3.83;;;0.80;;
25721;SDS011;13578;53.450;15.496;2023-05-14T10:41:36;2.90;;;0.68;;
25721;SDS011;13578;53.450;15.496;2023-05-14T10:44:40;1.85;;;0.82;;
25721;SDS011;13578;53.450;15.496;2023-05-14T10:47:46;1.30;;;0.80;;
25721;SDS011;13578;53.450;15.496;2023-05-14T10:50:48;1.70;;;0.50;;
25721;SDS011;13578;53.450;15.496;2023-05-14T10:53:51;1.58;;;0.60;;
25721;SDS011;13578;53.450;15.496;2023-05-14T10:56:51;3.15;;;1.10;;
25721;SDS011;13578;53.450;15.496;2023-05-14T10:59:53;1.45;;;0.70;;
25721;SDS011;13578;53.450;15.496;2023-05-14T11:02:55;3.17;;;0.40;;
25721;SDS011;13578;53.450;15.496;2023-05-14T11:05:58;1.63;;;0.68;;
25721;SDS011;13578;53.450;15.496;2023-05-14T11:09:02;1.42;;;0.77;;
25721;SDS011;13578;53.450;15.496;2023-05-14T11:12:05;2.53;;;0.70;;
25721;SDS011;13578;53.450;15.496;2023-05-14T11:15:08;1.58;;;0.70;;
25721;SDS011;13578;53.450;15.496;2023-05-14T11:18:10;1.27;;;0.50;;
25721;SDS011;13578;53.450;15.496;2023-05-14T11:21:10;2.38;;;0.80;;
25721;SDS011;13578;53.450;15.496;2023-05-14T11:24:11;2.17;;;0.70;;
25721;SDS011;13578;53.450;15.496;2023-05-14T11:27:12;1.17;;;0.40;;
25721;SDS011;13578;53.450;15.496;2023-05-14T11:30:14;3.90;;;0.60;;
25721;SDS011;13578;53.450;15.496;2023-05-14T11:33:16;3.05;;;0.73;;
25721;SDS011;13578;53.450;15.496;2023-05-14T11:36:17;2.60;;;0.60;;
25721;SDS011;13578;53.450;15.496;2023-05-14T11:39:18;2.75;;;0.80;;
25721;SDS011;13578;53.450;15.496;2023-05-14T11:42:19;4.00;;;0.60;;
25721;SDS011;13578;53.450;15.496;2023-05-14T11:45:27;1.27;;;0.40;;
25721;SDS011;13578;53.450;15.496;2023-05-14T11:48:28;1.65;;;0.40;;
25721;SDS011;13578;53.450;15.496;2023-05-14T11:51:31;1.63;;;0.80;;
25721;SDS011;13578;53.450;15.496;2023-05-14T11:54:32;1.20;;;0.50;;
25721;SDS011;13578;53.450;15.496;2023-05-14T11:57:34;1.08;;;0.45;;
25721;SDS011;13578;53.450;15.496;2023-05-14T12:00:36;1.83;;;0.57;;
25721;SDS011;13578;53.450;15.496;2023-05-14T12:03:37;1.55;;;0.70;;
25721;SDS011;13578;53.450;15.496;2023-05-14T12:06:38;1.80;;;0.63;;
25721;SDS011;13578;53.450;15.496;2023-05-14T12:09:40;2.47;;;0.90;;
25721;SDS011;13578;53.450;15.496;2023-05-14T12:12:50;4.00;;;0.60;;
25721;SDS011;13578;53.450;15.496;2023-05-14T12:15:54;2.05;;;0.50;;
25721;SDS011;13578;53.450;15.496;2023-05-14T12:19:01;2.40;;;0.80;;
25721;SDS011;13578;53.450;15.496;2023-05-14T12:22:01;2.45;;;0.85;;
25721;SDS011;13578;53.450;15.496;2023-05-14T12:25:02;2.58;;;0.80;;
25721;SDS011;13578;53.450;15.496;2023-05-14T12:28:12;3.47;;;0.75;;
25721;SDS011;13578;53.450;15.496;2023-05-14T12:31:14;7.03;;;0.80;;
25721;SDS011;13578;53.450;15.496;2023-05-14T12:34:15;2.35;;;0.75;;
25721;SDS011;13578;53.450;15.496;2023-05-14T12:37:16;3.70;;;1.08;;
25721;SDS011;13578;53.450;15.496;2023-05-14T12:40:17;4.15;;;0.73;;
25721;SDS011;13578;53.450;15.496;2023-05-14T12:43:18;2.47;;;0.60;;
25721;SDS011;13578;53.450;15.496;2023-05-14T12:46:19;6.88;;;1.35;;
25721;SDS011;13578;53.450;15.496;2023-05-14T12:49:19;5.50;;;0.77;;
25721;SDS011;13578;53.450;15.496;2023-05-14T12:52:20;3.47;;;0.70;;
25721;SDS011;13578;53.450;15.496;2023-05-14T12:55:20;4.95;;;0.90;;
25721;SDS011;13578;53.450;15.496;2023-05-14T12:58:21;2.28;;;0.85;;
25721;SDS011;13578;53.450;15.496;2023-05-14T13:01:22;2.08;;;1.08;;
25721;SDS011;13578;53.450;15.496;2023-05-14T13:04:23;2.72;;;0.70;;
25721;SDS011;13578;53.450;15.496;2023-05-14T13:07:24;3.53;;;0.95;;
25721;SDS011;13578;53.450;15.496;2023-05-14T13:10:25;2.78;;;0.57;;
25721;SDS011;13578;53.450;15.496;2023-05-14T13:13:25;1.20;;;0.63;;
25721;SDS011;13578;53.450;15.496;2023-05-14T13:16:26;1.55;;;0.80;;
25721;SDS011;13578;53.450;15.496;2023-05-14T13:19:27;4.32;;;0.95;;
25721;SDS011;13578;53.450;15.496;2023-05-14T13:22:28;1.98;;;0.73;;
25721;SDS011;13578;53.450;15.496;2023-05-14T13:25:28;2.65;;;0.60;;
25721;SDS011;13578;53.450;15.496;2023-05-14T13:28:30;2.65;;;0.73;;
25721;SDS011;13578;53.450;15.496;2023-05-14T13:31:30;1.05;;;0.40;;
25721;SDS011;13578;53.450;15.496;2023-05-14T13:34:31;2.83;;;0.63;;
25721;SDS011;13578;53.450;15.496;2023-05-14T13:37:31;1.48;;;0.60;;
25721;SDS011;13578;53.450;15.496;2023-05-14T13:40:32;2.70;;;0.45;;
25721;SDS011;13578;53.450;15.496;2023-05-14T13:43:33;1.73;;;0.63;;
25721;SDS011;13578;53.450;15.496;2023-05-14T13:46:34;1.90;;;0.70;;
25721;SDS011;13578;53.450;15.496;2023-05-14T13:49:35;3.58;;;0.75;;
25721;SDS011;13578;53.450;15.496;2023-05-14T13:52:36;4.20;;;0.68;;
25721;SDS011;13578;53.450;15.496;2023-05-14T13:55:38;1.73;;;0.50;;
25721;SDS011;13578;53.450;15.496;2023-05-14T13:58:38;1.35;;;0.90;;
25721;SDS011;13578;53.450;15.496;2023-05-14T14:01:39;2.03;;;0.70;;
25721;SDS011;13578;53.450;15.496;2023-05-14T14:04:42;2.88;;;0.65;;
25721;SDS011;13578;53.450;15.496;2023-05-14T14:07:42;1.65;;;0.60;;
25721;SDS011;13578;53.450;15.496;2023-05-14T14:10:43;2.53;;;0.63;;
25721;SDS011;13578;53.450;15.496;2023-05-14T14:13:43;8.23;;;1.08;;
25721;SDS011;13578;53.450;15.496;2023-05-14T14:16:44;3.10;;;1.13;;
25721;SDS011;13578;53.450;15.496;2023-05-14T14:19:45;6.88;;;0.98;;
25721;SDS011;13578;53.450;15.496;2023-05-14T14:22:45;3.30;;;1.05;;
25721;SDS011;13578;53.450;15.496;2023-05-14T14:25:46;5.78;;;1.00;;
25721;SDS011;13578;53.450;15.496;2023-05-14T14:28:46;2.80;;;1.58;;
25721;SDS011;13578;53.450;15.496;2023-05-14T14:31:47;6.18;;;0.88;;
25721;SDS011;13578;53.450;15.496;2023-05-14T14:34:48;5.28;;;0.75;;
25721;SDS011;13578;53.450;15.496;2023-05-14T14:37:48;2.08;;;0.98;;
25721;SDS011;13578;53.450;15.496;2023-05-14T14:40:51;3.75;;;1.02;;
25721;SDS011;13578;53.450;15.496;2023-05-14T14:43:51;2.22;;;1.02;;
25721;SDS011;13578;53.450;15.496;2023-05-14T14:46:52;25.77;;;1.70;;
25721;SDS011;13578;53.450;15.496;2023-05-14T14:49:53;2.00;;;1.00;;
25721;SDS011;13578;53.450;15.496;2023-05-14T14:52:53;4.30;;;1.08;;
25721;SDS011;13578;53.450;15.496;2023-05-14T14:55:54;2.35;;;0.82;;
25721;SDS011;13578;53.450;15.496;2023-05-14T14:58:56;2.72;;;1.23;;
25721;SDS011;13578;53.450;15.496;2023-05-14T15:01:56;3.95;;;1.00;;
25721;SDS011;13578;53.450;15.496;2023-05-14T15:04:57;5.63;;;1.20;;
25721;SDS011;13578;53.450;15.496;2023-05-14T15:07:58;2.38;;;1.13;;
25721;SDS011;13578;53.450;15.496;2023-05-14T15:10:58;5.22;;;1.40;;
25721;SDS011;13578;53.450;15.496;2023-05-14T15:13:59;2.33;;;1.08;;
25721;SDS011;13578;53.450;15.496;2023-05-14T15:16:59;2.95;;;1.05;;
25721;SDS011;13578;53.450;15.496;2023-05-14T15:20:00;2.33;;;0.88;;
25721;SDS011;13578;53.450;15.496;2023-05-14T15:23:01;4.38;;;1.20;;
25721;SDS011;13578;53.450;15.496;2023-05-14T15:26:02;1.58;;;0.70;;
25721;SDS011;13578;53.450;15.496;2023-05-14T15:29:04;6.57;;;1.25;;
25721;SDS011;13578;53.450;15.496;2023-05-14T15:32:04;1.83;;;0.88;;
25721;SDS011;13578;53.450;15.496;2023-05-14T15:35:06;2.70;;;1.08;;
25721;SDS011;13578;53.450;15.496;2023-05-14T15:38:07;8.90;;;1.10;;
25721;SDS011;13578;53.450;15.496;2023-05-14T15:41:07;5.40;;;1.00;;
25721;SDS011;13578;53.450;15.496;2023-05-14T15:44:08;6.57;;;1.58;;
25721;SDS011;13578;53.450;15.496;2023-05-14T15:47:08;4.32;;;1.05;;
25721;SDS011;13578;53.450;15.496;2023-05-14T15:50:10;3.17;;;1.42;;
25721;SDS011;13578;53.450;15.496;2023-05-14T15:53:10;4.63;;;1.27;;
25721;SDS011;13578;53.450;15.496;2023-05-14T15:56:11;3.60;;;1.60;;
25721;SDS011;13578;53.450;15.496;2023-05-14T15:59:12;3.00;;;1.63;;
25721;SDS011;13578;53.450;15.496;2023-05-14T16:02:13;2.47;;;1.02;;
25721;SDS011;13578;53.450;15.496;2023-05-14T16:05:15;5.72;;;1.17;;
25721;SDS011;13578;53.450;15.496;2023-05-14T16:08:16;3.42;;;1.13;;
25721;SDS011;13578;53.450;15.496;2023-05-14T16:11:16;5.13;;;1.27;;
25721;SDS011;13578;53.450;15.496;2023-05-14T16:14:17;3.28;;;1.35;;
25721;SDS011;13578;53.450;15.496;2023-05-14T16:17:18;9.80;;;1.35;;
25721;SDS011;13578;53.450;15.496;2023-05-14T16:20:18;9.55;;;1.15;;
25721;SDS011;13578;53.450;15.496;2023-05-14T16:23:19;3.08;;;1.08;;
25721;SDS011;13578;53.450;15.496;2023-05-14T16:26:20;3.38;;;1.38;;
25721;SDS011;13578;53.450;15.496;2023-05-14T16:29:21;5.88;;;1.23;;
25721;SDS011;13578;53.450;15.496;2023-05-14T16:32:22;5.63;;;1.23;;
25721;SDS011;13578;53.450;15.496;2023-05-14T16:35:24;2.15;;;0.80;;
25721;SDS011;13578;53.450;15.496;2023-05-14T16:38:24;2.92;;;0.93;;
25721;SDS011;13578;53.450;15.496;2023-05-14T16:41:25;2.35;;;0.98;;
25721;SDS011;13578;53.450;15.496;2023-05-14T16:44:27;3.55;;;1.08;;
25721;SDS011;13578;53.450;15.496;2023-05-14T16:47:28;5.55;;;1.08;;
25721;SDS011;13578;53.450;15.496;2023-05-14T16:50:29;3.65;;;1.20;;
25721;SDS011;13578;53.450;15.496;2023-05-14T16:53:29;6.35;;;1.90;;
25721;SDS011;13578;53.450;15.496;2023-05-14T16:56:30;3.10;;;1.00;;
25721;SDS011;13578;53.450;15.496;2023-05-14T16:59:31;7.43;;;1.02;;
25721;SDS011;13578;53.450;15.496;2023-05-14T17:02:32;2.35;;;0.90;;
25721;SDS011;13578;53.450;15.496;2023-05-14T17:05:33;4.13;;;1.67;;
25721;SDS011;13578;53.450;15.496;2023-05-14T17:08:34;2.20;;;0.65;;
25721;SDS011;13578;53.450;15.496;2023-05-14T17:11:35;3.75;;;1.55;;
25721;SDS011;13578;53.450;15.496;2023-05-14T17:14:36;4.30;;;1.20;;
25721;SDS011;13578;53.450;15.496;2023-05-14T17:17:36;3.25;;;1.15;;
25721;SDS011;13578;53.450;15.496;2023-05-14T17:20:37;5.20;;;1.35;;
25721;SDS011;13578;53.450;15.496;2023-05-14T17:23:38;2.20;;;0.98;;
25721;SDS011;13578;53.450;15.496;2023-05-14T17:26:39;5.18;;;1.05;;
25721;SDS011;13578;53.450;15.496;2023-05-14T17:29:39;8.32;;;1.67;;
25721;SDS011;13578;53.450;15.496;2023-05-14T17:32:40;6.82;;;1.00;;
25721;SDS011;13578;53.450;15.496;2023-05-14T17:35:41;3.33;;;1.23;;
25721;SDS011;13578;53.450;15.496;2023-05-14T17:38:42;5.28;;;1.40;;
25721;SDS011;13578;53.450;15.496;2023-05-14T17:41:43;8.07;;;0.82;;
25721;SDS011;13578;53.450;15.496;2023-05-14T17:44:44;5.72;;;1.48;;
25721;SDS011;13578;53.450;15.496;2023-05-14T17:47:45;3.60;;;0.80;;
25721;SDS011;13578;53.450;15.496;2023-05-14T17:50:46;3.47;;;1.05;;
25721;SDS011;13578;53.450;15.496;2023-05-14T17:53:46;4.22;;;1.15;;
25721;SDS011;13578;53.450;15.496;2023-05-14T17:56:47;5.45;;;1.33;;
25721;SDS011;13578;53.450;15.496;2023-05-14T17:59:50;2.15;;;0.85;;
25721;SDS011;13578;53.450;15.496;2023-05-14T18:02:50;2.80;;;1.10;;
25721;SDS011;13578;53.450;15.496;2023-05-14T18:05:51;5.70;;;2.13;;
25721;SDS011;13578;53.450;15.496;2023-05-14T18:08:51;4.60;;;1.08;;